createdAt,value
2022-08-17T00:03:51.425Z,6.55
2022-08-17T00:09:07.397Z,7.75
2022-08-17T00:14:23.392Z,6.90
2022-08-17T00:19:39.459Z,7.20
2022-08-17T00:24:55.440Z,7.55
2022-08-17T00:30:11.088Z,6.90
2022-08-17T00:35:26.138Z,6.75
2022-08-17T00:40:44.807Z,8.00
2022-08-17T00:46:00.143Z,6.77
2022-08-17T00:51:15.129Z,6.53
2022-08-17T00:56:30.081Z,6.85
2022-08-17T01:01:46.111Z,6.60
2022-08-17T01:07:01.173Z,6.65
2022-08-17T01:12:16.166Z,7.60
2022-08-17T01:17:31.438Z,7.13
2022-08-17T01:22:47.090Z,6.55
2022-08-17T01:28:02.412Z,6.53
2022-08-17T01:33:18.395Z,6.78
2022-08-17T01:38:34.141Z,6.45
2022-08-17T01:43:49.170Z,6.53
2022-08-17T01:49:04.389Z,6.90
2022-08-17T01:54:20.173Z,6.35
2022-08-17T01:59:35.149Z,6.72
2022-08-17T02:04:50.403Z,6.65
2022-08-17T02:10:05.936Z,7.03
2022-08-17T02:15:35.166Z,6.70
2022-08-17T02:20:50.146Z,6.78
2022-08-17T02:26:05.424Z,7.28
2022-08-17T02:31:21.427Z,6.63
2022-08-17T02:36:37.164Z,6.68
2022-08-17T02:41:52.145Z,7.53
2022-08-17T02:47:07.089Z,6.60
2022-08-17T02:52:41.937Z,7.15
2022-08-17T02:57:57.164Z,7.00
2022-08-17T03:03:12.103Z,6.97
2022-08-17T03:08:27.429Z,6.35
2022-08-17T03:13:43.395Z,5.88
2022-08-17T03:19:37.148Z,6.43
2022-08-17T03:24:55.111Z,6.28
2022-08-17T03:30:11.115Z,7.28
2022-08-17T03:35:26.130Z,7.07
2022-08-17T03:40:56.673Z,6.22
2022-08-17T03:46:34.285Z,6.30
2022-08-17T03:51:50.431Z,6.72
2022-08-17T03:57:06.116Z,6.72
2022-08-17T04:02:21.431Z,6.43
2022-08-17T04:07:37.124Z,6.88
2022-08-17T04:12:52.139Z,6.57
2022-08-17T04:18:08.159Z,6.82
2022-08-17T04:23:26.429Z,6.72
2022-08-17T04:28:42.408Z,6.45
2022-08-17T04:33:58.097Z,6.32
2022-08-17T04:39:14.441Z,6.43
2022-08-17T04:44:37.433Z,6.18
2022-08-17T04:49:53.107Z,6.80
2022-08-17T04:55:08.413Z,6.30
2022-08-17T05:00:24.425Z,6.53
2022-08-17T05:05:40.166Z,7.38
2022-08-17T05:10:55.101Z,7.43
2022-08-17T05:16:10.118Z,6.80
2022-08-17T05:21:25.146Z,7.15
2022-08-17T05:26:40.132Z,7.22
2022-08-17T05:31:57.932Z,6.95
2022-08-17T05:37:13.476Z,6.20
2022-08-17T05:42:29.104Z,6.45
2022-08-17T05:47:44.114Z,7.07
2022-08-17T05:52:59.197Z,7.00
2022-08-17T05:58:14.176Z,6.60
2022-08-17T06:03:29.729Z,6.30
2022-08-17T06:08:45.195Z,7.28
2022-08-17T06:14:02.907Z,7.00
2022-08-17T06:19:17.913Z,6.80
2022-08-17T06:24:33.138Z,6.63
2022-08-17T06:29:48.160Z,7.65
2022-08-17T06:35:03.422Z,6.80
2022-08-17T06:40:19.125Z,6.97
2022-08-17T06:45:34.174Z,6.88
2022-08-17T06:50:49.509Z,6.13
2022-08-17T06:56:05.594Z,7.28
2022-08-17T07:01:21.209Z,7.13
2022-08-17T07:06:37.696Z,6.55
2022-08-17T07:11:53.215Z,6.47
2022-08-17T07:17:08.989Z,6.57
2022-08-17T07:22:24.251Z,7.22
2022-08-17T07:27:39.192Z,7.05
2022-08-17T07:32:54.112Z,6.57
2022-08-17T07:38:25.240Z,6.65
2022-08-17T07:43:42.165Z,7.72
2022-08-17T07:48:57.141Z,7.28
2022-08-17T07:54:14.747Z,7.20
2022-08-17T07:59:33.839Z,7.88
2022-08-17T08:05:00.761Z,6.45
2022-08-17T08:10:17.164Z,7.15
2022-08-17T08:15:32.186Z,7.65
2022-08-17T08:20:53.111Z,6.85
2022-08-17T08:26:09.479Z,6.53
2022-08-17T08:31:29.128Z,6.75
2022-08-17T08:37:15.768Z,6.55
2022-08-17T08:42:19.398Z,7.57
2022-08-17T08:47:35.657Z,6.72
2022-08-17T08:52:51.175Z,6.70
2022-08-17T08:58:06.436Z,6.90
2022-08-17T09:03:31.773Z,6.72
2022-08-17T09:08:57.147Z,6.03
2022-08-17T09:14:21.724Z,6.25
2022-08-17T09:19:37.181Z,5.72
2022-08-17T09:24:52.468Z,6.10
2022-08-17T09:30:08.199Z,7.50
2022-08-17T09:35:23.514Z,7.20
2022-08-17T09:40:39.499Z,7.05
2022-08-17T09:45:55.158Z,7.40
2022-08-17T09:51:10.270Z,7.03
2022-08-17T09:56:25.206Z,6.68
2022-08-17T10:01:40.575Z,7.10
2022-08-17T10:06:56.176Z,6.70
2022-08-17T10:12:11.157Z,6.57
2022-08-17T10:17:25.931Z,6.00
2022-08-17T10:22:41.143Z,6.47
2022-08-17T10:27:57.461Z,7.18
2022-08-17T10:33:13.167Z,6.65
2022-08-17T10:38:28.205Z,6.10
2022-08-17T10:43:43.497Z,6.22
2022-08-17T10:49:13.130Z,5.32
2022-08-17T10:54:28.550Z,5.90
2022-08-17T10:59:44.513Z,5.80
2022-08-17T11:05:00.513Z,5.75
2022-08-17T11:10:16.255Z,5.00
2022-08-17T11:15:31.433Z,5.63
2022-08-17T11:20:47.199Z,4.95
2022-08-17T11:26:02.176Z,4.95
2022-08-17T11:31:17.223Z,5.57
2022-08-17T11:36:32.160Z,5.55
2022-08-17T11:41:47.226Z,5.43
2022-08-17T11:47:02.154Z,5.40
2022-08-17T11:52:17.199Z,6.00
2022-08-17T11:57:32.227Z,5.78
2022-08-17T12:02:48.823Z,5.68
2022-08-17T12:08:04.169Z,5.30
2022-08-17T12:13:19.209Z,5.43
2022-08-17T12:18:34.480Z,5.28
2022-08-17T12:23:50.215Z,5.00
2022-08-17T12:29:05.308Z,5.32
